Time;durP1;ratioP1;P1;durP2;ratioP2;P2;SDS_P1;SDS_P2;PMS_P1;PMS_P2;Temp;Humidity;BMP_temperature;BMP_pressure;BME280_temperature;BME280_humidity;BME280_pressure;Samples;Min_cycle;Max_cycle;Signal;HPM_P1;HPM_P2
2023/03/09 00:01:29;;;;;;;1.17;1.10;;;;;;;12.70;37.76;94481.84;5025164;28;20916;-68
2023/03/09 00:03:58;;;;;;;0.70;0.70;;;;;;;12.12;39.22;94480.25;5028040;28;20525;-65
2023/03/09 00:06:25;;;;;;;0.60;0.60;;;;;;;12.10;38.81;94471.84;5016246;28;20900;-65
2023/03/09 00:08:52;;;;;;;3.03;1.43;;;;;;;12.30;38.49;94481.44;5031547;28;20483;-65
2023/03/09 00:11:19;;;;;;;0.10;0.10;;;;;;;12.33;38.61;94481.66;5030032;28;20499;-67
2023/03/09 00:13:48;;;;;;;5.57;1.13;;;;;;;12.11;39.14;94490.00;5032414;28;21226;-68
2023/03/09 00:16:21;;;;;;;0.40;0.40;;;;;;;12.38;38.93;94478.19;5031606;28;20436;-65
2023/03/09 00:18:51;;;;;;;0.40;0.40;;;;;;;12.26;38.45;94475.94;5031302;28;20448;-67
2023/03/09 00:21:34;;;;;;;2.23;1.30;;;;;;;12.30;38.77;94487.47;5026152;28;20967;-62
2023/03/09 00:24:05;;;;;;;0.90;0.87;;;;;;;12.21;38.90;94479.38;5030627;28;20454;-68
2023/03/09 00:26:34;;;;;;;3.03;1.90;;;;;;;12.33;38.70;94476.41;5031312;28;20530;-69
2023/03/09 00:29:00;;;;;;;1.30;1.23;;;;;;;12.19;38.77;94475.47;5029109;28;20605;-64
2023/03/09 00:31:29;;;;;;;1.00;0.93;;;;;;;12.14;38.94;94457.13;5018150;28;20449;-71
2023/03/09 00:33:56;;;;;;;1.23;0.83;;;;;;;11.91;39.52;94469.13;5031144;28;20452;-67
2023/03/09 00:36:24;;;;;;;0.67;0.67;;;;;;;11.99;39.14;94472.97;5028957;28;20531;-69
2023/03/09 00:38:52;;;;;;;0.40;0.37;;;;;;;11.98;39.31;94461.72;5029961;28;20447;-68
2023/03/09 00:41:21;;;;;;;0.87;0.83;;;;;;;11.94;39.29;94462.53;5030089;28;20471;-70
2023/03/09 00:43:49;;;;;;;0.17;0.17;;;;;;;11.97;39.24;94462.00;5028254;28;20845;-68
2023/03/09 00:46:16;;;;;;;0.10;0.10;;;;;;;12.00;39.39;94453.56;5030208;28;21093;-66
2023/03/09 00:48:43;;;;;;;0.77;0.77;;;;;;;12.07;39.33;94456.66;5028062;28;20484;-68
2023/03/09 00:51:10;;;;;;;0.37;0.30;;;;;;;11.94;39.37;94441.53;5027729;28;20459;-61
2023/03/09 00:53:37;;;;;;;0.10;0.10;;;;;;;10.05;43.54;94445.38;5030320;28;20451;-66
2023/03/09 00:56:07;;;;;;;0.10;0.10;;;;;;;11.33;41.05;94446.34;5027452;28;20518;-71
2023/03/09 00:58:34;;;;;;;0.67;0.67;;;;;;;11.61;40.36;94442.25;5026799;28;20447;-68
2023/03/09 01:01:06;;;;;;;1.13;1.03;;;;;;;11.88;39.53;94447.84;5027273;28;20460;-64
2023/03/09 01:03:33;;;;;;;6.60;2.23;;;;;;;11.79;39.66;94449.50;5030154;28;20444;-62
2023/03/09 01:06:00;;;;;;;0.77;0.77;;;;;;;11.65;39.93;94440.69;5027104;28;20447;-66
2023/03/09 01:08:29;;;;;;;0.20;0.20;;;;;;;11.92;39.47;94436.56;5028731;28;20480;-70
2023/03/09 01:10:56;;;;;;;0.73;0.63;;;;;;;11.90;39.88;94443.91;5027142;28;20436;-69
2023/03/09 01:13:24;;;;;;;0.50;0.50;;;;;;;11.50;40.40;94456.47;5022725;28;20464;-62
2023/03/09 01:15:51;;;;;;;4.23;1.30;;;;;;;11.35;40.83;94454.72;5019869;28;20822;-65
2023/03/09 01:18:19;;;;;;;1.13;0.37;;;;;;;11.64;40.50;94439.84;5020939;28;20455;-65
2023/03/09 01:20:45;;;;;;;0.37;0.37;;;;;;;11.85;39.92;94445.78;5027971;28;21006;-68
2023/03/09 01:23:12;;;;;;;0.20;0.20;;;;;;;11.84;39.79;94421.38;5028267;28;20821;-65
2023/03/09 01:25:39;;;;;;;1.33;0.97;;;;;;;11.71;39.97;94410.72;5027532;28;20781;-65
2023/03/09 01:28:06;;;;;;;1.37;1.27;;;;;;;11.21;41.40;94432.78;5028155;28;20491;-65
2023/03/09 01:30:33;;;;;;;0.23;0.23;;;;;;;11.68;40.26;94416.50;5028464;28;20482;-68
2023/03/09 01:33:00;;;;;;;0.57;0.43;;;;;;;11.60;40.45;94417.06;5026896;28;20474;-67
2023/03/09 01:35:26;;;;;;;0.10;0.10;;;;;;;11.01;41.81;94420.53;5029398;28;20454;-68
2023/03/09 01:37:53;;;;;;;0.50;0.50;;;;;;;11.56;40.75;94418.66;5029931;28;20523;-69
2023/03/09 01:40:25;;;;;;;0.20;0.20;;;;;;;11.61;40.46;94410.75;5029941;28;20468;-67
2023/03/09 01:43:20;;;;;;;0.40;0.40;;;;;;;11.60;40.69;94410.00;5025299;28;20483;-72
2023/03/09 01:45:47;;;;;;;0.03;0.03;;;;;;;11.62;40.23;94407.09;5031786;28;21204;-68
2023/03/09 01:48:14;;;;;;;0.10;0.10;;;;;;;11.67;40.18;94405.25;5027750;28;20484;-68
2023/03/09 01:50:42;;;;;;;0.40;0.40;;;;;;;11.89;39.76;94396.94;5028766;28;20447;-69
2023/03/09 01:53:14;;;;;;;0.13;0.13;;;;;;;11.87;40.02;94385.94;5030079;28;21045;-68
2023/03/09 01:55:46;;;;;;;0.10;0.10;;;;;;;11.65;40.01;94369.81;5036057;28;20447;-62
2023/03/09 01:58:19;;;;;;;0.37;0.37;;;;;;;11.81;40.08;94394.88;5036915;28;20529;-66
2023/03/09 02:00:49;;;;;;;0.40;0.40;;;;;;;11.74;40.18;94399.69;5033186;28;20459;-62
2023/03/09 02:03:28;;;;;;;0.37;0.37;;;;;;;11.81;40.32;94397.50;5035130;28;20573;-62
2023/03/09 02:06:01;;;;;;;0.17;0.17;;;;;;;11.75;39.86;94390.75;5031646;28;20490;-69
2023/03/09 02:08:31;;;;;;;0.20;0.20;;;;;;;11.85;39.83;94395.91;5028246;28;21075;-73
2023/03/09 02:11:06;;;;;;;0.73;0.73;;;;;;;11.89;39.67;94396.94;5028352;28;20444;-64
2023/03/09 02:13:42;;;;;;;0.00;0.00;;;;;;;11.87;39.70;94404.31;5027156;28;20440;-70
2023/03/09 02:16:10;;;;;;;0.30;0.30;;;;;;;11.76;40.50;94410.69;5024629;28;20536;-68
2023/03/09 02:18:38;;;;;;;0.00;0.00;;;;;;;11.92;40.05;94410.31;5025404;28;20531;-67
2023/03/09 02:21:39;;;;;;;0.10;0.10;;;;;;;12.09;39.73;94409.91;5036537;28;20510;-67
2023/03/09 02:24:16;;;;;;;0.87;0.60;;;;;;;11.92;39.79;94399.81;5021956;28;20444;-67
2023/03/09 02:26:58;;;;;;;0.50;0.50;;;;;;;11.91;39.76;94405.34;5029196;28;20439;-62
2023/03/09 02:29:26;;;;;;;0.53;0.53;;;;;;;11.88;40.14;94401.41;5026638;28;20483;-66
2023/03/09 02:31:53;;;;;;;0.37;0.37;;;;;;;11.40;41.04;94422.44;5026827;28;20492;-65
2023/03/09 02:34:20;;;;;;;0.00;0.00;;;;;;;11.64;40.17;94415.47;5027362;28;20574;-67
2023/03/09 02:36:50;;;;;;;0.20;0.20;;;;;;;11.72;40.04;94412.28;5026229;28;20483;-71
2023/03/09 02:39:34;;;;;;;1.10;0.97;;;;;;;11.64;40.36;94423.34;5024214;28;20454;-66
2023/03/09 02:42:02;;;;;;;0.43;0.43;;;;;;;11.77;40.02;94428.03;5041239;28;21203;-64
2023/03/09 02:44:31;;;;;;;0.30;0.30;;;;;;;11.68;40.44;94427.00;5024315;28;20452;-65
2023/03/09 02:47:09;;;;;;;0.20;0.20;;;;;;;11.73;40.18;94419.13;5029024;28;20444;-68
2023/03/09 02:49:36;;;;;;;0.10;0.10;;;;;;;11.64;40.08;94410.22;5024796;28;20655;-65
2023/03/09 02:52:04;;;;;;;0.10;0.10;;;;;;;11.61;40.38;94401.06;5026317;28;20525;-68
2023/03/09 02:54:31;;;;;;;1.60;1.23;;;;;;;11.78;39.88;94411.19;5012946;28;20467;-72
2023/03/09 02:56:59;;;;;;;0.00;0.00;;;;;;;11.66;40.28;94418.66;5026132;28;20825;-69
2023/03/09 02:59:26;;;;;;;1.60;1.50;;;;;;;11.76;40.25;94419.34;5026164;28;20452;-65
2023/03/09 03:01:53;;;;;;;0.50;0.50;;;;;;;11.58;40.72;94411.31;5025776;28;20472;-69
2023/03/09 03:04:21;;;;;;;0.07;0.07;;;;;;;11.61;40.99;94422.03;5026435;28;20476;-68
2023/03/09 03:06:50;;;;;;;0.00;0.00;;;;;;;11.64;40.92;94433.84;5023059;28;20455;-71
2023/03/09 03:09:17;;;;;;;0.23;0.23;;;;;;;10.78;42.47;94429.03;5026891;28;21073;-67
2023/03/09 03:11:44;;;;;;;0.20;0.20;;;;;;;10.64;42.44;94427.22;5022790;28;20982;-70
2023/03/09 03:14:11;;;;;;;0.10;0.10;;;;;;;10.62;42.95;94437.19;5028965;28;20475;-70
2023/03/09 03:16:39;;;;;;;0.30;0.30;;;;;;;10.71;42.90;94439.00;5027987;28;20938;-70
2023/03/09 03:19:06;;;;;;;0.00;0.00;;;;;;;11.26;41.93;94447.72;5026937;28;20585;-65
2023/03/09 03:21:38;;;;;;;0.23;0.20;;;;;;;11.18;41.97;94428.84;5026259;28;20927;-68
2023/03/09 03:24:06;;;;;;;0.53;0.53;;;;;;;10.74;42.41;94432.44;5025727;28;20443;-66
2023/03/09 03:26:35;;;;;;;1.60;1.50;;;;;;;11.31;41.19;94434.56;5027351;28;20447;-69
2023/03/09 03:29:07;;;;;;;0.00;0.00;;;;;;;10.73;42.57;94423.03;5024629;28;20482;-68
2023/03/09 03:31:34;;;;;;;0.40;0.30;;;;;;;11.05;41.95;94429.44;5026090;28;20532;-65
2023/03/09 03:34:01;;;;;;;0.97;0.87;;;;;;;10.92;42.18;94443.13;5027619;28;20443;-70
2023/03/09 03:36:33;;;;;;;0.30;0.30;;;;;;;11.15;41.73;94439.88;5025540;28;20459;-66
2023/03/09 03:39:01;;;;;;;3.93;0.47;;;;;;;11.18;41.87;94444.56;5026093;28;20444;-67
2023/03/09 03:41:27;;;;;;;0.37;0.37;;;;;;;11.14;41.50;94437.53;5021187;28;20510;-68
2023/03/09 03:43:57;;;;;;;0.23;0.23;;;;;;;11.53;40.89;94434.97;5022631;28;20479;-65
2023/03/09 03:46:24;;;;;;;1.53;1.07;;;;;;;11.31;41.32;94421.44;5029200;28;20587;-67
2023/03/09 03:49:09;;;;;;;0.20;0.20;;;;;;;11.37;41.31;94441.34;5029678;28;20479;-69
2023/03/09 03:51:39;;;;;;;0.00;0.00;;;;;;;11.23;41.58;94441.94;5028855;28;20482;-63
2023/03/09 03:54:06;;;;;;;0.93;0.93;;;;;;;11.70;40.70;94446.69;5031525;28;20451;-67
2023/03/09 03:56:34;;;;;;;0.83;0.83;;;;;;;11.55;40.91;94454.59;5029604;28;20544;-67
2023/03/09 03:59:06;;;;;;;0.00;0.00;;;;;;;11.47;41.13;94441.28;5042308;28;20454;-66
2023/03/09 04:01:35;;;;;;;0.23;0.23;;;;;;;11.62;41.00;94436.75;5044068;28;20898;-67
2023/03/09 04:04:05;;;;;;;0.00;0.00;;;;;;;11.66;40.68;94422.03;5029848;28;20487;-68
2023/03/09 04:06:37;;;;;;;0.40;0.40;;;;;;;11.68;41.00;94443.53;5028085;28;20451;-66
2023/03/09 04:09:05;;;;;;;0.13;0.13;;;;;;;11.74;40.66;94439.03;5028920;28;20567;-68
2023/03/09 04:11:34;;;;;;;0.20;0.20;;;;;;;11.57;40.93;94436.00;5027634;28;20455;-68
2023/03/09 04:14:01;;;;;;;0.43;0.43;;;;;;;11.60;41.35;94440.69;5027334;28;20440;-70
2023/03/09 04:16:28;;;;;;;0.20;0.20;;;;;;;11.40;41.92;94430.31;5028905;28;20962;-67
2023/03/09 04:18:56;;;;;;;1.83;1.40;;;;;;;11.44;41.58;94420.84;5029363;28;20550;-64
2023/03/09 04:21:24;;;;;;;1.00;0.73;;;;;;;11.12;42.09;94427.31;5010710;28;20514;-66
2023/03/09 04:23:51;;;;;;;0.57;0.33;;;;;;;10.56;43.17;94435.63;5029808;28;20459;-72
2023/03/09 04:26:19;;;;;;;0.23;0.23;;;;;;;10.90;42.56;94428.72;5028288;28;20510;-68
2023/03/09 04:28:54;;;;;;;0.60;0.60;;;;;;;11.32;41.34;94429.03;5023979;28;20486;-64
2023/03/09 04:31:21;;;;;;;0.00;0.00;;;;;;;11.38;41.45;94417.47;5030364;28;20529;-68
2023/03/09 04:33:48;;;;;;;3.87;2.97;;;;;;;11.29;41.61;94415.69;5029340;28;20474;-64
2023/03/09 04:36:19;;;;;;;0.47;0.47;;;;;;;11.41;41.55;94416.13;5028502;28;20444;-70
2023/03/09 04:38:47;;;;;;;0.30;0.30;;;;;;;11.35;41.63;94414.63;5028961;28;20479;-63
2023/03/09 04:41:15;;;;;;;0.30;0.30;;;;;;;11.49;41.39;94412.94;5028895;28;20482;-72
2023/03/09 04:43:47;;;;;;;0.20;0.20;;;;;;;11.33;41.55;94403.59;5028057;28;20450;-67
2023/03/09 04:46:15;;;;;;;0.43;0.43;;;;;;;11.36;41.91;94410.91;5027893;28;20475;-67
2023/03/09 04:48:43;;;;;;;0.10;0.10;;;;;;;11.25;41.97;94399.72;5028977;28;20448;-65
2023/03/09 04:51:09;;;;;;;0.63;0.63;;;;;;;11.41;41.55;94395.94;5027718;28;20470;-66
2023/03/09 04:53:37;;;;;;;0.60;0.60;;;;;;;11.15;42.42;94397.13;5029030;28;20454;-69
2023/03/09 04:56:05;;;;;;;0.30;0.30;;;;;;;11.03;42.58;94405.34;5027852;28;20478;-73
2023/03/09 04:58:38;;;;;;;0.00;0.00;;;;;;;11.16;42.27;94398.72;5018325;28;20447;-66
2023/03/09 05:01:05;;;;;;;1.20;0.83;;;;;;;11.12;42.40;94414.19;5035681;28;20444;-65
2023/03/09 05:03:32;;;;;;;0.27;0.27;;;;;;;11.34;41.63;94397.28;5025183;28;20946;-65
2023/03/09 05:05:59;;;;;;;0.40;0.40;;;;;;;11.40;42.05;94391.75;5030900;28;20454;-67
2023/03/09 05:08:31;;;;;;;0.10;0.10;;;;;;;11.03;42.48;94405.34;5027861;28;20547;-65
2023/03/09 05:10:58;;;;;;;0.27;0.27;;;;;;;11.04;42.36;94404.25;5030234;28;20556;-67
2023/03/09 05:13:26;;;;;;;0.23;0.23;;;;;;;11.09;42.86;94404.22;5029345;28;21104;-67
2023/03/09 05:15:54;;;;;;;0.30;0.30;;;;;;;11.09;42.58;94413.97;5035165;28;20514;-71
2023/03/09 05:18:21;;;;;;;0.70;0.70;;;;;;;11.11;42.40;94401.38;5030193;28;20451;-69
2023/03/09 05:20:48;;;;;;;1.03;1.00;;;;;;;10.98;42.60;94410.56;5029511;28;20556;-64
2023/03/09 05:23:15;;;;;;;1.03;0.93;;;;;;;10.93;42.58;94410.59;5029217;28;20450;-68
2023/03/09 05:25:42;;;;;;;5.17;3.00;;;;;;;10.93;42.62;94405.38;5027152;28;20563;-70
2023/03/09 05:28:11;;;;;;;1.70;1.60;;;;;;;10.92;42.75;94393.31;5029108;28;20440;-67
2023/03/09 05:30:40;;;;;;;7.53;4.80;;;;;;;10.96;43.09;94404.06;5034770;28;20495;-63
2023/03/09 05:33:09;;;;;;;3.70;2.17;;;;;;;11.11;42.07;94407.38;5032752;28;20468;-68
2023/03/09 05:35:38;;;;;;;6.43;4.13;;;;;;;11.07;42.23;94411.63;5029049;28;20432;-66
2023/03/09 05:38:06;;;;;;;3.07;2.77;;;;;;;11.24;42.21;94424.34;5029359;28;20452;-63
2023/03/09 05:40:34;;;;;;;5.17;4.27;;;;;;;11.04;42.72;94424.44;5028011;28;21084;-72
2023/03/09 05:43:06;;;;;;;6.13;2.53;;;;;;;11.07;42.81;94443.06;5027652;28;20541;-68
2023/03/09 05:45:34;;;;;;;1.93;1.83;;;;;;;11.23;41.93;94443.78;5013996;28;20492;-69
2023/03/09 05:48:01;;;;;;;1.90;1.63;;;;;;;11.13;42.40;94434.13;5028721;28;20436;-66
2023/03/09 05:50:29;;;;;;;2.03;1.93;;;;;;;11.20;43.93;94431.97;5026300;28;20480;-69
2023/03/09 05:52:57;;;;;;;7.60;2.80;;;;;;;11.18;45.23;94434.09;5027551;28;20466;-69
2023/03/09 05:59:52;;;;;;;0.50;0.50;;;;;;;11.83;42.58;94429.53;5029592;28;20535;-72
2023/03/09 06:02:20;;;;;;;0.93;0.67;;;;;;;11.56;42.15;94439.66;5028318;28;20447;-71
2023/03/09 06:04:50;;;;;;;3.30;3.00;;;;;;;11.80;42.07;94448.47;5015923;28;20494;-68
2023/03/09 06:07:19;;;;;;;1.47;1.37;;;;;;;11.71;41.93;94460.59;5028479;28;20440;-67
2023/03/09 06:09:48;;;;;;;1.97;1.67;;;;;;;11.68;41.66;94453.25;5028982;28;21128;-68
2023/03/09 06:12:22;;;;;;;1.50;1.40;;;;;;;11.86;41.30;94456.00;5028061;28;20498;-61
2023/03/09 06:14:52;;;;;;;2.33;1.40;;;;;;;11.87;41.40;94464.69;5028502;28;20955;-61
2023/03/09 06:17:21;;;;;;;0.87;0.87;;;;;;;11.70;41.07;94456.38;5028075;28;20443;-68
2023/03/09 06:19:48;;;;;;;1.23;1.23;;;;;;;11.64;41.67;94465.34;5029538;28;20458;-70
2023/03/09 06:22:16;;;;;;;1.37;0.97;;;;;;;11.90;41.17;94451.78;5027938;28;20475;-62
2023/03/09 06:24:43;;;;;;;1.07;1.07;;;;;;;11.70;41.11;94448.50;5030154;28;20475;-71
2023/03/09 06:27:13;;;;;;;5.30;3.60;;;;;;;11.87;41.03;94457.59;5027967;28;20534;-71
2023/03/09 06:29:40;;;;;;;0.97;0.80;;;;;;;12.11;41.24;94452.44;5028687;28;20507;-70
2023/03/09 06:32:07;;;;;;;1.43;1.33;;;;;;;12.39;41.25;94449.00;5027606;28;20997;-74
2023/03/09 06:34:37;;;;;;;0.87;0.87;;;;;;;12.29;41.07;94436.00;5028024;28;20547;-71
2023/03/09 06:37:07;;;;;;;0.57;0.57;;;;;;;12.45;40.96;94447.91;5028028;28;20448;-70
2023/03/09 06:39:34;;;;;;;0.67;0.67;;;;;;;12.52;40.48;94448.38;5027321;28;20440;-71
2023/03/09 06:42:01;;;;;;;1.13;1.13;;;;;;;12.50;40.65;94447.88;5029247;28;21010;-69
2023/03/09 06:44:50;;;;;;;0.80;0.80;;;;;;;12.70;40.39;94450.28;5023968;28;20428;-69
2023/03/09 06:47:20;;;;;;;2.33;2.00;;;;;;;12.81;40.25;94445.72;5027620;28;20482;-70
2023/03/09 06:49:54;;;;;;;7.63;2.87;;;;;;;12.91;40.08;94435.09;5028733;28;20582;-68
2023/03/09 06:52:24;;;;;;;3.30;2.53;;;;;;;13.05;40.26;94426.28;5028345;28;20468;-69
2023/03/09 06:54:52;;;;;;;1.47;1.37;;;;;;;13.23;39.77;94423.97;5029021;28;20978;-70
2023/03/09 06:57:31;;;;;;;2.67;1.23;;;;;;;13.33;39.76;94426.44;5027757;28;20442;-70
2023/03/09 06:59:58;;;;;;;0.67;0.67;;;;;;;13.39;39.46;94414.81;5030351;28;20439;-65
2023/03/09 07:02:25;;;;;;;1.10;1.10;;;;;;;13.55;39.19;94409.03;5027939;28;20458;-68
2023/03/09 07:04:52;;;;;;;0.67;0.63;;;;;;;13.63;39.23;94416.28;5028092;28;20444;-70
2023/03/09 07:07:19;;;;;;;1.80;0.93;;;;;;;13.42;39.20;94420.28;5029253;28;20540;-69
2023/03/09 07:09:46;;;;;;;0.93;0.93;;;;;;;13.72;38.83;94416.44;5029844;28;21037;-71
2023/03/09 07:12:13;;;;;;;1.50;1.13;;;;;;;13.87;38.33;94416.19;5029397;28;20447;-70
2023/03/09 07:14:39;;;;;;;0.63;0.63;;;;;;;13.91;37.29;94417.19;5029490;28;20515;-68
2023/03/09 07:17:11;;;;;;;0.43;0.43;;;;;;;14.13;37.61;94418.16;5028239;28;20883;-68
2023/03/09 07:19:38;;;;;;;0.43;0.43;;;;;;;14.03;37.62;94414.91;5029660;28;20820;-66
2023/03/09 07:22:06;;;;;;;0.10;0.10;;;;;;;14.36;36.96;94413.84;5028773;28;20483;-66
2023/03/09 07:24:34;;;;;;;1.40;1.27;;;;;;;14.19;37.80;94418.84;5028822;28;20444;-73
2023/03/09 07:27:01;;;;;;;0.80;0.80;;;;;;;14.35;38.53;94416.75;5029205;28;20467;-68
2023/03/09 07:29:28;;;;;;;0.10;0.10;;;;;;;14.38;36.92;94414.31;5030732;28;20846;-63
2023/03/09 07:31:56;;;;;;;0.90;0.87;;;;;;;14.38;37.04;94427.50;5028822;28;20517;-68
2023/03/09 07:34:23;;;;;;;0.33;0.33;;;;;;;14.26;37.40;94414.00;5029338;28;20467;-69
2023/03/09 07:36:49;;;;;;;0.23;0.23;;;;;;;14.47;36.88;94425.75;5028534;28;20885;-67
2023/03/09 07:39:16;;;;;;;1.07;1.07;;;;;;;14.14;37.10;94388.09;5029490;28;20448;-68
2023/03/09 07:41:43;;;;;;;0.30;0.30;;;;;;;14.66;36.94;94429.13;5028481;28;20555;-70
2023/03/09 07:44:10;;;;;;;0.30;0.30;;;;;;;14.75;37.14;94435.28;5029091;28;20858;-64
2023/03/09 07:46:37;;;;;;;0.00;0.00;;;;;;;14.77;36.77;94419.97;5038023;28;20500;-66
2023/03/09 07:49:04;;;;;;;0.27;0.27;;;;;;;14.83;36.59;94418.81;5029257;28;20454;-69
2023/03/09 07:51:31;;;;;;;0.10;0.10;;;;;;;14.98;35.78;94410.56;5028655;28;20498;-65
2023/03/09 07:53:59;;;;;;;0.77;0.77;;;;;;;15.13;36.07;94423.47;5029050;28;20563;-70
2023/03/09 07:56:25;;;;;;;0.20;0.20;;;;;;;15.11;36.17;94422.19;5028356;28;20440;-68
2023/03/09 07:58:54;;;;;;;0.30;0.30;;;;;;;15.15;36.59;94421.31;5029083;28;20482;-66
2023/03/09 08:01:20;;;;;;;0.20;0.20;;;;;;;15.09;36.25;94430.41;5028265;28;20525;-71
2023/03/09 08:03:47;;;;;;;1.50;1.10;;;;;;;15.23;36.33;94418.00;5029098;28;20451;-65
2023/03/09 08:06:15;;;;;;;0.77;0.77;;;;;;;15.18;35.82;94420.72;5028065;28;20550;-66
2023/03/09 08:08:42;;;;;;;0.47;0.47;;;;;;;15.25;35.92;94421.09;5028265;28;20981;-66
2023/03/09 08:11:09;;;;;;;0.10;0.10;;;;;;;15.43;35.98;94416.03;5027997;28;20570;-66
2023/03/09 08:13:36;;;;;;;0.03;0.03;;;;;;;15.65;35.50;94413.44;5028224;28;20447;-67
2023/03/09 08:16:06;;;;;;;0.20;0.20;;;;;;;15.69;35.32;94430.25;5028948;28;20467;-66
2023/03/09 08:18:34;;;;;;;2.33;1.23;;;;;;;15.70;35.40;94423.88;5028749;28;20443;-68
2023/03/09 08:21:06;;;;;;;0.20;0.20;;;;;;;15.80;35.99;94423.69;5028684;28;20440;-67
2023/03/09 08:23:40;;;;;;;0.70;0.60;;;;;;;15.85;35.10;94424.34;5029720;28;20466;-64
2023/03/09 08:26:14;;;;;;;0.30;0.30;;;;;;;15.83;35.14;94425.72;5028165;28;20450;-65
2023/03/09 08:28:42;;;;;;;0.90;0.87;;;;;;;15.84;35.14;94411.41;5031465;28;20452;-64
2023/03/09 08:31:11;;;;;;;5.83;5.43;;;;;;;15.93;36.09;94407.00;5034716;28;21008;-61
2023/03/09 08:33:38;;;;;;;3.30;2.63;;;;;;;16.12;35.38;94407.59;5041774;28;20469;-66
2023/03/09 08:36:23;;;;;;;0.53;0.53;;;;;;;16.06;34.82;94403.50;5039479;28;20446;-63
2023/03/09 08:38:50;;;;;;;0.13;0.13;;;;;;;16.37;34.87;94409.59;5040689;28;20526;-61
2023/03/09 08:41:18;;;;;;;0.83;0.83;;;;;;;16.27;34.80;94399.28;5040017;28;20534;-64
2023/03/09 08:43:46;;;;;;;0.33;0.33;;;;;;;15.93;34.98;94399.06;5031935;28;20494;-69
2023/03/09 08:46:14;;;;;;;1.80;1.03;;;;;;;16.35;34.98;94398.53;5031983;28;20537;-71
2023/03/09 08:48:41;;;;;;;1.90;1.50;;;;;;;16.41;34.75;94392.06;5031558;28;20562;-65
2023/03/09 08:51:09;;;;;;;0.20;0.20;;;;;;;16.66;34.41;94380.84;5031737;28;20487;-67
2023/03/09 08:53:37;;;;;;;0.77;0.77;;;;;;;16.80;34.54;94394.75;5031900;28;21299;-62
2023/03/09 08:56:10;;;;;;;0.20;0.20;;;;;;;17.15;34.14;94383.19;5031933;28;20444;-67
2023/03/09 08:58:37;;;;;;;1.40;0.87;;;;;;;17.22;34.57;94394.09;5031932;28;20486;-65
2023/03/09 09:01:08;;;;;;;0.40;0.40;;;;;;;17.32;34.01;94384.31;5031234;28;20448;-65
2023/03/09 09:03:38;;;;;;;0.70;0.70;;;;;;;17.10;33.38;94375.38;5031379;28;20935;-64
2023/03/09 09:06:09;;;;;;;0.70;0.60;;;;;;;17.03;33.51;94379.56;5030846;28;20471;-64
2023/03/09 09:08:36;;;;;;;0.17;0.17;;;;;;;17.33;33.58;94377.94;5030846;28;20506;-68
2023/03/09 09:11:08;;;;;;;0.30;0.30;;;;;;;17.22;33.68;94366.84;5030818;28;20472;-66
2023/03/09 09:13:36;;;;;;;0.37;0.37;;;;;;;17.16;33.34;94357.50;5031363;28;20468;-68
2023/03/09 09:16:08;;;;;;;0.10;0.10;;;;;;;17.15;33.68;94356.69;5030297;28;20872;-65
2023/03/09 09:18:36;;;;;;;0.27;0.27;;;;;;;17.20;33.87;94353.16;5030728;28;20633;-67
2023/03/09 09:21:12;;;;;;;0.30;0.30;;;;;;;17.19;34.03;94341.75;5028854;28;20474;-67
2023/03/09 09:23:41;;;;;;;0.20;0.20;;;;;;;17.04;33.80;94347.50;5030800;28;20494;-64
2023/03/09 09:26:11;;;;;;;0.20;0.20;;;;;;;17.30;33.56;94328.25;5030526;28;20498;-64
2023/03/09 09:28:39;;;;;;;0.70;0.70;;;;;;;17.23;33.64;94337.41;5030757;28;20540;-64
2023/03/09 09:31:06;;;;;;;0.40;0.40;;;;;;;17.37;33.58;94333.84;5030639;28;20518;-67
2023/03/09 09:33:36;;;;;;;0.10;0.10;;;;;;;17.66;33.02;94342.00;5029325;28;20578;-64
2023/03/09 09:36:11;;;;;;;0.10;0.10;;;;;;;17.80;32.93;94329.34;5030732;28;20545;-63
2023/03/09 09:38:38;;;;;;;0.63;0.53;;;;;;;17.77;33.17;94330.00;5029514;28;20471;-68
2023/03/09 09:41:24;;;;;;;1.80;0.93;;;;;;;17.81;33.06;94326.38;5029969;28;20532;-67
2023/03/09 09:43:55;;;;;;;0.10;0.10;;;;;;;17.77;32.98;94324.69;5030839;28;20835;-65
2023/03/09 09:46:23;;;;;;;0.40;0.40;;;;;;;17.85;32.72;94315.94;5030201;28;20477;-65
2023/03/09 09:48:50;;;;;;;0.20;0.20;;;;;;;18.00;32.69;94324.19;5030491;28;20442;-66
2023/03/09 09:51:54;;;;;;;0.40;0.40;;;;;;;18.31;32.21;94318.66;5029515;28;20498;-65
2023/03/09 09:54:42;;;;;;;0.10;0.10;;;;;;;17.86;32.28;94314.84;5030630;28;20782;-64
2023/03/09 09:57:35;;;;;;;0.63;0.63;;;;;;;18.45;31.72;94308.63;5029513;28;20882;-63
2023/03/09 10:00:06;;;;;;;0.10;0.10;;;;;;;19.10;31.98;94308.91;5018180;28;20455;-67
2023/03/09 10:02:57;;;;;;;0.37;0.37;;;;;;;19.46;31.27;94305.75;5030479;28;20451;-66
2023/03/09 10:06:16;;;;;;;2.33;0.77;;;;;;;19.85;30.71;94301.81;5030519;28;20469;-68
2023/03/09 10:09:11;;;;;;;0.57;0.57;;;;;;;19.92;30.32;94291.44;5023267;28;20491;-66
2023/03/09 10:11:43;;;;;;;0.10;0.10;;;;;;;20.17;30.25;94271.78;5026806;28;20878;-67
2023/03/09 10:14:42;;;;;;;0.93;0.73;;;;;;;20.47;29.79;94275.84;5017669;28;20456;-65
2023/03/09 10:17:21;;;;;;;0.10;0.10;;;;;;;19.98;29.22;94264.28;5029328;28;20444;-68
2023/03/09 10:19:49;;;;;;;0.10;0.10;;;;;;;20.31;29.66;94258.94;5030109;28;20452;-64
2023/03/09 10:22:22;;;;;;;0.27;0.27;;;;;;;20.50;29.71;94248.56;5030189;28;20444;-66
2023/03/09 10:24:51;;;;;;;4.30;1.47;;;;;;;20.64;29.76;94243.66;5030895;28;20447;-66
2023/03/09 10:27:20;;;;;;;0.80;0.80;;;;;;;20.74;29.26;94247.78;5017587;28;20456;-70
2023/03/09 10:30:27;;;;;;;0.73;0.63;;;;;;;20.51;29.04;94246.69;5031728;28;20444;-66
2023/03/09 10:33:01;;;;;;;0.33;0.33;;;;;;;20.31;29.58;94240.31;5020541;28;20450;-68
2023/03/09 10:35:34;;;;;;;0.13;0.13;;;;;;;20.60;28.86;94234.78;5031579;28;20444;-65
2023/03/09 10:38:01;;;;;;;1.40;1.30;;;;;;;20.56;29.16;94228.59;5030952;28;20444;-68
2023/03/09 10:40:32;;;;;;;0.10;0.10;;;;;;;20.29;28.67;94226.56;5030229;28;20452;-69
2023/03/09 10:43:00;;;;;;;0.30;0.30;;;;;;;20.92;28.26;94217.91;5030149;28;20464;-66
2023/03/09 10:45:31;;;;;;;0.20;0.20;;;;;;;21.26;28.92;94215.88;5031761;28;20505;-67
2023/03/09 10:48:06;;;;;;;0.67;0.67;;;;;;;21.17;28.50;94200.00;5031382;28;20864;-67
2023/03/09 10:50:40;;;;;;;1.77;1.57;;;;;;;21.41;28.06;94199.13;5030273;28;20562;-64
2023/03/09 10:53:26;;;;;;;0.57;0.57;;;;;;;21.61;27.75;94195.50;5030366;28;20530;-63
2023/03/09 10:55:56;;;;;;;0.60;0.60;;;;;;;22.08;28.03;94188.34;5015821;28;20567;-67
2023/03/09 10:58:33;;;;;;;0.10;0.10;;;;;;;22.24;27.33;94175.81;5029804;28;20877;-63
2023/03/09 11:01:18;;;;;;;2.77;1.03;;;;;;;22.50;27.25;94159.25;5028958;28;20255;-67
2023/03/09 11:03:45;;;;;;;0.80;0.80;;;;;;;21.74;26.75;94151.66;5028832;28;20197;-65
2023/03/09 11:06:12;;;;;;;2.37;0.83;;;;;;;22.10;27.02;94156.75;5029435;28;20257;-66
2023/03/09 11:08:52;;;;;;;1.37;0.77;;;;;;;20.77;28.20;94168.00;5029399;28;20224;-66
2023/03/09 11:11:40;;;;;;;0.40;0.40;;;;;;;21.08;28.14;94162.84;5018533;28;20247;-66
2023/03/09 11:14:24;;;;;;;2.67;0.40;;;;;;;21.00;28.11;94157.66;5029664;28;20455;-66
2023/03/09 11:16:54;;;;;;;0.10;0.10;;;;;;;21.58;28.02;94153.53;5029019;28;20463;-66
2023/03/09 11:19:22;;;;;;;0.10;0.10;;;;;;;21.70;27.77;94140.13;5016224;28;20440;-66
2023/03/09 11:21:57;;;;;;;0.27;0.27;;;;;;;21.35;27.84;94133.88;5028404;28;20796;-68
2023/03/09 11:24:49;;;;;;;0.10;0.10;;;;;;;21.67;27.34;94135.47;5029010;28;20252;-64
2023/03/09 11:27:25;;;;;;;0.10;0.10;;;;;;;21.07;27.72;94140.00;5026143;28;20534;-65
2023/03/09 11:30:06;;;;;;;1.13;0.30;;;;;;;21.57;27.41;94126.09;5019903;28;20798;-67
2023/03/09 11:32:33;;;;;;;0.27;0.27;;;;;;;20.64;28.11;94125.75;5028259;28;20483;-65
2023/03/09 11:35:02;;;;;;;0.10;0.10;;;;;;;20.71;28.02;94110.75;5028979;28;20200;-68
2023/03/09 11:37:42;;;;;;;0.10;0.10;;;;;;;21.05;28.15;94104.94;5028698;28;20189;-65
2023/03/09 11:40:24;;;;;;;0.10;0.10;;;;;;;21.78;27.35;94099.97;5028643;28;22368;-66
2023/03/09 11:43:12;;;;;;;0.10;0.10;;;;;;;22.22;26.84;94114.00;5031345;28;20551;-67
2023/03/09 11:45:41;;;;;;;0.10;0.10;;;;;;;21.47;27.46;94115.16;5021295;28;20447;-64
2023/03/09 11:48:31;;;;;;;0.20;0.20;;;;;;;20.89;28.22;94101.38;5028554;28;20197;-62
2023/03/09 11:51:20;;;;;;;0.07;0.07;;;;;;;21.65;27.20;94073.72;5028435;28;21108;-62
2023/03/09 11:54:17;;;;;;;0.10;0.10;;;;;;;21.28;27.29;94069.72;5018382;28;20498;-64
2023/03/09 11:56:45;;;;;;;0.37;0.37;;;;;;;21.63;27.03;94062.63;5015950;28;20293;-64